createdAt,value
2017-06-09T00:00:05.985Z,925.88
2017-06-09T00:00:19.429Z,925.88
2017-06-09T00:00:32.883Z,925.89
2017-06-09T00:00:45.288Z,925.84
2017-06-09T00:00:58.772Z,925.85
2017-06-09T00:01:12.259Z,925.83
2017-06-09T00:01:25.706Z,925.89
2017-06-09T00:01:38.612Z,925.87
2017-06-09T00:01:51.589Z,925.86
2017-06-09T00:02:05.075Z,925.88
2017-06-09T00:02:17.967Z,925.87
2017-06-09T00:02:31.445Z,925.88
2017-06-09T00:02:44.940Z,925.86
2017-06-09T00:02:58.405Z,925.87
2017-06-09T00:03:11.337Z,925.87
2017-06-09T00:03:24.238Z,925.89
2017-06-09T00:03:37.751Z,925.88
2017-06-09T00:03:51.239Z,925.87
2017-06-09T00:04:04.659Z,925.86
2017-06-09T00:04:18.106Z,925.9
2017-06-09T00:04:31.556Z,925.87
2017-06-09T00:04:45.074Z,925.84
2017-06-09T00:04:58.577Z,925.86
2017-06-09T00:05:11.512Z,925.87
2017-06-09T00:05:23.993Z,925.9
2017-06-09T00:05:36.948Z,925.86
2017-06-09T00:05:49.899Z,925.85
2017-06-09T00:06:03.379Z,925.85
2017-06-09T00:06:16.343Z,925.86
2017-06-09T00:06:29.282Z,925.87
2017-06-09T00:06:42.752Z,925.85
2017-06-09T00:06:56.263Z,925.84
2017-06-09T00:07:09.760Z,925.87
2017-06-09T00:07:22.691Z,925.82
2017-06-09T00:07:35.612Z,925.85
2017-06-09T00:07:48.500Z,925.85
2017-06-09T00:08:01.680Z,925.87
2017-06-09T00:08:15.155Z,925.85
2017-06-09T00:08:28.694Z,925.88
2017-06-09T00:08:41.647Z,925.87
2017-06-09T00:08:55.073Z,925.9
2017-06-09T00:09:07.983Z,925.89
2017-06-09T00:09:20.973Z,925.89
2017-06-09T00:09:33.881Z,925.9
2017-06-09T00:09:46.340Z,925.92
2017-06-09T00:09:59.971Z,925.89
2017-06-09T00:10:13.416Z,925.94
2017-06-09T00:10:26.949Z,925.94
2017-06-09T00:10:40.487Z,925.89
2017-06-09T00:10:53.928Z,925.92
2017-06-09T00:11:06.946Z,925.89
2017-06-09T00:11:19.927Z,925.94
2017-06-09T00:11:33.717Z,925.94
2017-06-09T00:11:47.181Z,925.92
2017-06-09T00:12:00.669Z,925.94
2017-06-09T00:12:12.083Z,925.92
2017-06-09T00:12:25.630Z,925.91
2017-06-09T00:12:39.954Z,925.94
2017-06-09T00:12:55.660Z,925.93
2017-06-09T00:13:08.699Z,925.91
2017-06-09T00:13:21.695Z,925.9
2017-06-09T00:13:35.133Z,925.9
2017-06-09T00:13:47.530Z,925.89
2017-06-09T00:14:00.947Z,925.93
2017-06-09T00:14:14.683Z,925.91
2017-06-09T00:14:29.043Z,925.91
2017-06-09T00:14:42.079Z,925.91
2017-06-09T00:14:55.597Z,925.89
2017-06-09T00:15:09.031Z,925.89
2017-06-09T00:15:22.483Z,925.91
2017-06-09T00:15:35.966Z,925.91
2017-06-09T00:15:49.503Z,925.86
2017-06-09T00:16:02.454Z,925.9
2017-06-09T00:16:15.995Z,925.89
2017-06-09T00:16:29.590Z,925.9
2017-06-09T00:16:42.566Z,925.86
2017-06-09T00:16:55.989Z,925.88
2017-06-09T00:17:09.480Z,925.88
2017-06-09T00:17:22.467Z,925.84
2017-06-09T00:17:35.905Z,925.88
2017-06-09T00:17:49.395Z,925.89
2017-06-09T00:18:02.887Z,925.92
2017-06-09T00:18:15.921Z,925.87
2017-06-09T00:18:28.911Z,925.86
2017-06-09T00:18:43.174Z,925.88
2017-06-09T00:18:56.290Z,925.93
2017-06-09T00:19:09.802Z,925.9
2017-06-09T00:19:22.816Z,925.89
2017-06-09T00:19:36.348Z,925.9
2017-06-09T00:19:49.822Z,925.9
2017-06-09T00:20:03.378Z,925.95
2017-06-09T00:20:15.821Z,925.89
2017-06-09T00:20:28.875Z,925.9
2017-06-09T00:20:41.821Z,925.89
2017-06-09T00:20:54.832Z,925.91
2017-06-09T00:21:08.395Z,925.96
2017-06-09T00:21:21.913Z,925.92
2017-06-09T00:21:34.898Z,925.93
2017-06-09T00:21:48.409Z,925.95
2017-06-09T00:22:02.171Z,925.97
2017-06-09T00:22:16.096Z,925.97
2017-06-09T00:22:29.677Z,925.98
2017-06-09T00:22:43.199Z,925.98
2017-06-09T00:22:55.629Z,925.97
2017-06-09T00:23:09.545Z,925.96
2017-06-09T00:23:23.353Z,926
2017-06-09T00:23:36.327Z,926
2017-06-09T00:23:50.115Z,925.98
2017-06-09T00:24:03.726Z,925.99
2017-06-09T00:24:17.241Z,925.99
2017-06-09T00:24:30.740Z,925.98
2017-06-09T00:24:44.148Z,926.01
2017-06-09T00:24:57.603Z,926
2017-06-09T00:25:10.549Z,926.03
2017-06-09T00:25:23.576Z,926.02
2017-06-09T00:25:37.108Z,926.03
2017-06-09T00:25:50.633Z,926.03
2017-06-09T00:26:03.601Z,926.04
2017-06-09T00:26:17.132Z,926.04
2017-06-09T00:26:30.079Z,926.04
2017-06-09T00:26:43.585Z,926.05
2017-06-09T00:26:56.556Z,926.09
2017-06-09T00:27:09.529Z,926.09
2017-06-09T00:27:23.092Z,926.04
2017-06-09T00:27:36.616Z,926.11
2017-06-09T00:27:49.771Z,926.1
2017-06-09T00:28:02.947Z,926.09
2017-06-09T00:28:18.688Z,926.09
2017-06-09T00:28:31.898Z,926.09
2017-06-09T00:28:44.937Z,926.1
2017-06-09T00:29:00.773Z,926.1
2017-06-09T00:29:15.315Z,926.11
2017-06-09T00:29:28.336Z,926.13
2017-06-09T00:29:41.011Z,926.12
2017-06-09T00:29:54.463Z,926.12
2017-06-09T00:30:06.949Z,926.13
2017-06-09T00:30:20.249Z,926.13
2017-06-09T00:30:33.837Z,926.11
2017-06-09T00:30:47.344Z,926.12
2017-06-09T00:31:00.203Z,926.11
2017-06-09T00:31:14.971Z,926.12
2017-06-09T00:31:28.486Z,926.12
2017-06-09T00:31:52.314Z,926.13
2017-06-09T00:32:05.270Z,926.09
2017-06-09T00:32:20.877Z,926.12
2017-06-09T00:32:33.859Z,926.09
2017-06-09T00:32:47.333Z,926.12
2017-06-09T00:33:01.447Z,926.12
2017-06-09T00:33:14.987Z,926.08
2017-06-09T00:33:28.505Z,926.11
2017-06-09T00:33:40.925Z,926.15
2017-06-09T00:33:55.260Z,926.1
2017-06-09T00:34:08.476Z,926.12
2017-06-09T00:34:25.055Z,926.12
2017-06-09T00:34:52.154Z,926.11
2017-06-09T00:35:55.912Z,926.12
2017-06-09T00:36:36.654Z,926.08
2017-06-09T00:37:14.680Z,926.09
2017-06-09T00:37:30.453Z,926.12
2017-06-09T00:37:44.007Z,926.13
2017-06-09T00:37:56.896Z,926.12
2017-06-09T00:38:10.155Z,926.11
2017-06-09T00:38:24.141Z,926.15
2017-06-09T00:38:37.195Z,926.12
2017-06-09T00:38:50.664Z,926.14
2017-06-09T00:39:03.610Z,926.17
2017-06-09T00:39:16.637Z,926.17
2017-06-09T00:39:42.389Z,926.17
2017-06-09T00:39:56.092Z,926.17
2017-06-09T00:40:09.527Z,926.17
2017-06-09T00:40:26.105Z,926.18
2017-06-09T00:40:39.856Z,926.16
2017-06-09T00:40:53.417Z,926.16
2017-06-09T00:41:06.395Z,926.16
2017-06-09T00:41:19.596Z,926.16
2017-06-09T00:41:33.051Z,926.15
2017-06-09T00:41:46.204Z,926.18
2017-06-09T00:41:59.706Z,926.21
2017-06-09T00:42:13.227Z,926.19
2017-06-09T00:42:26.764Z,926.21
2017-06-09T00:42:40.259Z,926.2
2017-06-09T00:42:54.023Z,926.21
2017-06-09T00:43:07.574Z,926.2
2017-06-09T00:43:20.563Z,926.2
2017-06-09T00:43:35.262Z,926.2
2017-06-09T00:43:47.712Z,926.2
2017-06-09T00:44:01.166Z,926.19
2017-06-09T00:44:13.651Z,926.21
2017-06-09T00:44:26.626Z,926.19
2017-06-09T00:44:40.143Z,926.14
2017-06-09T00:44:53.684Z,926.18
2017-06-09T00:45:07.119Z,926.19
2017-06-09T00:45:20.581Z,926.2
2017-06-09T00:45:33.565Z,926.18
2017-06-09T00:45:46.528Z,926.2
2017-06-09T00:45:59.493Z,926.19
2017-06-09T00:46:12.427Z,926.18
2017-06-09T00:46:25.406Z,926.18
2017-06-09T00:46:38.935Z,926.18
2017-06-09T00:46:52.425Z,926.22
2017-06-09T00:47:05.888Z,926.18
2017-06-09T00:47:19.348Z,926.19
2017-06-09T00:47:32.773Z,926.21
2017-06-09T00:47:46.258Z,926.19
2017-06-09T00:47:59.712Z,926.18
2017-06-09T00:48:13.189Z,926.19
2017-06-09T00:48:26.644Z,926.19
2017-06-09T00:48:40.268Z,926.18
2017-06-09T00:48:58.394Z,926.15
2017-06-09T00:49:11.468Z,926.13
2017-06-09T00:49:23.624Z,926.16
2017-06-09T00:49:37.462Z,926.15
2017-06-09T00:49:50.440Z,926.13
2017-06-09T00:50:03.420Z,926.14
2017-06-09T00:50:16.946Z,926.13
2017-06-09T00:50:30.519Z,926.17
2017-06-09T00:50:47.497Z,926.16
2017-06-09T00:51:01.374Z,926.14
2017-06-09T00:51:14.369Z,926.14
2017-06-09T00:51:27.882Z,926.16
2017-06-09T00:51:47.742Z,926.15
2017-06-09T00:52:02.552Z,926.12
2017-06-09T00:52:15.074Z,926.1
2017-06-09T00:52:28.648Z,926.11
2017-06-09T00:52:42.695Z,926.13
2017-06-09T00:52:56.186Z,926.1
2017-06-09T00:53:09.734Z,926.1
2017-06-09T00:53:22.693Z,926.08
2017-06-09T00:53:36.168Z,926.08
2017-06-09T00:53:49.160Z,926.08
2017-06-09T00:54:02.623Z,926.1
2017-06-09T00:54:15.094Z,926.07
2017-06-09T00:54:28.747Z,926.11
2017-06-09T00:54:42.255Z,926.1
2017-06-09T00:54:55.215Z,926.14
2017-06-09T00:55:08.155Z,926.1
2017-06-09T00:55:21.695Z,926.08
2017-06-09T00:55:35.142Z,926.14
2017-06-09T00:55:48.552Z,926.14
2017-06-09T00:56:02.019Z,926.15
2017-06-09T00:56:14.506Z,926.15
2017-06-09T00:56:26.978Z,926.12
2017-06-09T00:56:40.397Z,926.17
2017-06-09T00:56:53.814Z,926.15
2017-06-09T00:57:07.320Z,926.19
2017-06-09T00:57:20.759Z,926.16
2017-06-09T00:57:34.256Z,926.17
2017-06-09T00:57:47.722Z,926.17
2017-06-09T00:58:01.180Z,926.19
2017-06-09T00:58:14.606Z,926.15
2017-06-09T00:58:27.672Z,926.2
2017-06-09T00:58:40.645Z,926.21
2017-06-09T00:58:54.126Z,926.23
2017-06-09T00:59:07.586Z,926.24
2017-06-09T00:59:21.145Z,926.23
2017-06-09T00:59:34.604Z,926.27
2017-06-09T00:59:48.124Z,926.25
2017-06-09T01:00:01.617Z,926.25
2017-06-09T01:00:14.580Z,926.24
2017-06-09T01:00:27.074Z,926.29
2017-06-09T01:00:39.980Z,926.28
2017-06-09T01:00:53.569Z,926.27
2017-06-09T01:01:06.569Z,926.28
2017-06-09T01:01:19.598Z,926.26
2017-06-09T01:01:33.140Z,926.32
2017-06-09T01:01:46.642Z,926.31
2017-06-09T01:02:00.163Z,926.29
2017-06-09T01:02:13.656Z,926.33
2017-06-09T01:02:27.093Z,926.29
2017-06-09T01:02:39.496Z,926.3
2017-06-09T01:02:52.947Z,926.31
2017-06-09T01:03:06.434Z,926.35
2017-06-09T01:03:20.015Z,926.3
2017-06-09T01:03:32.953Z,926.32
2017-06-09T01:03:45.969Z,926.35
2017-06-09T01:03:58.928Z,926.39
2017-06-09T01:04:11.916Z,926.34
2017-06-09T01:04:24.866Z,926.35
2017-06-09T01:04:37.857Z,926.34
2017-06-09T01:04:51.431Z,926.36
2017-06-09T01:05:04.393Z,926.34
2017-06-09T01:05:17.327Z,926.39
2017-06-09T01:05:30.321Z,926.37
2017-06-09T01:05:56.002Z,926.35
2017-06-09T01:06:09.540Z,926.36
2017-06-09T01:06:23.046Z,926.33
2017-06-09T01:06:36.636Z,926.37
2017-06-09T01:06:50.131Z,926.37
2017-06-09T01:07:03.077Z,926.36
2017-06-09T01:07:16.647Z,926.36
2017-06-09T01:07:30.166Z,926.39
2017-06-09T01:07:48.329Z,926.38
2017-06-09T01:08:02.560Z,926.38
2017-06-09T01:08:31.485Z,926.39
2017-06-09T01:08:46.485Z,926.36
2017-06-09T01:09:04.457Z,926.41
2017-06-09T01:09:20.615Z,926.39
2017-06-09T01:09:37.296Z,926.43
2017-06-09T01:09:53.199Z,926.41
2017-06-09T01:11:58.932Z,926.44
2017-06-09T01:12:12.470Z,926.4
2017-06-09T01:12:36.521Z,926.46
2017-06-09T01:12:59.474Z,926.45
2017-06-09T01:13:15.012Z,926.44
2017-06-09T01:13:59.184Z,926.5
2017-06-09T01:14:26.683Z,926.5
2017-06-09T01:15:13.306Z,926.53
2017-06-09T01:15:35.643Z,926.53
2017-06-09T01:15:55.468Z,926.55
2017-06-09T01:16:31.453Z,926.54
2017-06-09T01:16:45.748Z,926.54
2017-06-09T01:17:00.670Z,926.54
2017-06-09T01:17:14.747Z,926.6
2017-06-09T01:17:33.423Z,926.61
2017-06-09T01:18:42.572Z,926.62
2017-06-09T01:19:17.557Z,926.59
2017-06-09T01:34:30.225Z,926.79
2017-06-09T01:34:43.696Z,926.76
2017-06-09T01:35:59.656Z,926.73
2017-06-09T01:36:24.675Z,926.72
2017-06-09T01:36:43.456Z,926.68
2017-06-09T01:39:47.076Z,926.71
2017-06-09T01:40:31.681Z,926.75
2017-06-09T01:41:48.285Z,926.73
2017-06-09T01:42:46.428Z,926.71
2017-06-09T01:46:58.825Z,926.64
2017-06-09T01:48:16.699Z,926.68
2017-06-09T01:49:11.834Z,926.66
2017-06-09T01:49:59.641Z,926.67
2017-06-09T01:50:23.215Z,926.74
2017-06-09T01:51:01.288Z,926.71
2017-06-09T01:51:46.683Z,926.69
2017-06-09T01:53:09.679Z,926.65
2017-06-09T01:53:22.595Z,926.64
2017-06-09T01:54:39.272Z,926.65
2017-06-09T01:55:27.188Z,926.59
2017-06-09T01:56:38.259Z,926.53
2017-06-09T01:57:24.688Z,926.53
2017-06-09T01:58:05.387Z,926.55
2017-06-09T01:58:49.476Z,926.58
2017-06-09T01:59:19.967Z,926.54
2017-06-09T02:00:19.820Z,926.52
2017-06-09T02:01:04.377Z,926.52
2017-06-09T02:01:24.502Z,926.52
2017-06-09T02:01:42.635Z,926.48
2017-06-09T02:02:26.696Z,926.54
2017-06-09T02:02:41.429Z,926.53
2017-06-09T02:03:13.915Z,926.55
2017-06-09T02:03:58.750Z,926.56
2017-06-09T02:04:44.580Z,926.58
2017-06-09T02:06:07.695Z,926.52
2017-06-09T02:06:23.142Z,926.55
2017-06-09T02:07:03.314Z,926.55
2017-06-09T02:07:17.645Z,926.53
2017-06-09T02:08:02.682Z,926.56
2017-06-09T02:09:03.430Z,926.59
2017-06-09T02:09:53.756Z,926.64
2017-06-09T02:10:10.479Z,926.62
2017-06-09T02:10:31.632Z,926.64
2017-06-09T02:11:48.607Z,926.66
2017-06-09T02:12:46.212Z,926.73
2017-06-09T02:12:59.928Z,926.7
2017-06-09T02:15:27.199Z,926.67
2017-06-09T02:15:50.251Z,926.67
2017-06-09T02:16:19.556Z,926.67
2017-06-09T02:16:43.311Z,926.68
2017-06-09T02:18:05.584Z,926.66
2017-06-09T02:19:46.441Z,926.71
2017-06-09T02:20:00.618Z,926.72
2017-06-09T02:20:13.089Z,926.71
2017-06-09T02:20:55.475Z,926.71
2017-06-09T02:21:08.972Z,926.74
2017-06-09T02:21:23.751Z,926.75
2017-06-09T02:22:18.606Z,926.76
2017-06-09T02:22:38.893Z,926.73
2017-06-09T02:22:58.649Z,926.77
2017-06-09T02:24:06.445Z,926.78
2017-06-09T02:25:30.602Z,926.76
2017-06-09T02:25:44.129Z,926.78
2017-06-09T02:26:43.591Z,926.76
2017-06-09T02:28:21.895Z,926.79
2017-06-09T02:30:59.623Z,926.79
2017-06-09T02:31:55.007Z,926.76
2017-06-09T02:47:08.258Z,926.93
2017-06-09T02:47:31.975Z,926.92
2017-06-09T02:48:11.190Z,926.95
2017-06-09T02:49:05.773Z,926.9
2017-06-09T02:49:19.244Z,926.89
2017-06-09T02:49:38.326Z,926.94
2017-06-09T02:50:47.436Z,926.91
2017-06-09T02:51:33.051Z,926.88
2017-06-09T02:52:20.033Z,926.88
2017-06-09T02:53:06.379Z,926.9
2017-06-09T02:53:29.247Z,926.86
2017-06-09T02:54:06.159Z,926.85
2017-06-09T02:54:20.792Z,926.87
2017-06-09T02:54:37.404Z,926.85
2017-06-09T02:54:50.906Z,926.87
2017-06-09T02:55:18.281Z,926.86
2017-06-09T02:55:32.018Z,926.85
2017-06-09T02:55:46.235Z,926.87
2017-06-09T02:56:36.023Z,926.88
2017-06-09T02:57:33.644Z,926.84
2017-06-09T02:57:47.334Z,926.88
2017-06-09T02:58:02.108Z,926.84
2017-06-09T02:58:16.379Z,926.89
2017-06-09T02:58:29.377Z,926.88
2017-06-09T02:58:43.124Z,926.89
2017-06-09T02:58:56.050Z,926.85
2017-06-09T02:59:10.776Z,926.88
2017-06-09T02:59:26.347Z,926.91
2017-06-09T02:59:39.814Z,926.87
2017-06-09T02:59:53.335Z,926.89
2017-06-09T03:00:06.920Z,926.91
2017-06-09T03:00:21.700Z,926.89
2017-06-09T03:00:54.379Z,926.91
2017-06-09T03:01:12.725Z,926.84
2017-06-09T03:01:26.345Z,926.87
2017-06-09T03:01:40.507Z,926.89
2017-06-09T03:01:53.472Z,926.86
2017-06-09T03:02:06.396Z,926.89
2017-06-09T03:02:19.421Z,926.9
2017-06-09T03:02:32.483Z,926.88
2017-06-09T03:02:45.990Z,926.84
2017-06-09T03:03:00.963Z,926.85
2017-06-09T03:03:14.220Z,926.9
2017-06-09T03:03:28.815Z,926.9
2017-06-09T03:03:42.330Z,926.88
2017-06-09T03:03:55.302Z,926.88
2017-06-09T03:04:08.860Z,926.86
2017-06-09T03:04:21.822Z,926.86
2017-06-09T03:04:35.295Z,926.88
2017-06-09T03:04:49.648Z,926.9
2017-06-09T03:05:03.424Z,926.85
2017-06-09T03:05:16.963Z,926.88
2017-06-09T03:05:30.010Z,926.86
2017-06-09T03:05:54.627Z,926.85
2017-06-09T03:06:10.099Z,926.81
2017-06-09T03:06:23.309Z,926.82
2017-06-09T03:06:36.945Z,926.82
2017-06-09T03:06:50.497Z,926.76
2017-06-09T03:07:03.430Z,926.82
2017-06-09T03:07:17.577Z,926.78
2017-06-09T03:07:31.062Z,926.79
2017-06-09T03:07:44.539Z,926.78
2017-06-09T03:07:57.997Z,926.76
2017-06-09T03:08:10.977Z,926.75
2017-06-09T03:08:24.529Z,926.76
2017-06-09T03:08:37.541Z,926.77
2017-06-09T03:08:51.002Z,926.74
2017-06-09T03:09:04.480Z,926.74
2017-06-09T03:09:17.927Z,926.73
2017-06-09T03:09:31.438Z,926.72
2017-06-09T03:09:44.908Z,926.74
2017-06-09T03:09:57.347Z,926.7
2017-06-09T03:10:09.764Z,926.71
2017-06-09T03:10:22.800Z,926.71
2017-06-09T03:10:36.295Z,926.73
2017-06-09T03:10:49.260Z,926.73
2017-06-09T03:11:02.754Z,926.72
2017-06-09T03:11:16.302Z,926.72
2017-06-09T03:11:29.731Z,926.68
2017-06-09T03:11:47.722Z,926.72
2017-06-09T03:12:20.093Z,926.71
2017-06-09T03:12:33.605Z,926.71
2017-06-09T03:12:47.058Z,926.72
2017-06-09T03:13:00.106Z,926.71
2017-06-09T03:13:14.392Z,926.72
2017-06-09T03:13:28.801Z,926.71
2017-06-09T03:13:41.946Z,926.72
2017-06-09T03:13:54.939Z,926.74
2017-06-09T03:14:09.096Z,926.72
2017-06-09T03:14:22.837Z,926.71
2017-06-09T03:14:36.313Z,926.7
2017-06-09T03:14:49.283Z,926.71
2017-06-09T03:15:02.242Z,926.71
2017-06-09T03:15:14.713Z,926.72
2017-06-09T03:15:28.232Z,926.71
2017-06-09T03:15:41.704Z,926.66
2017-06-09T03:15:55.172Z,926.68
2017-06-09T03:16:08.637Z,926.65
2017-06-09T03:16:22.145Z,926.65
2017-06-09T03:16:35.102Z,926.65
2017-06-09T03:16:48.618Z,926.64
2017-06-09T03:17:02.106Z,926.62
2017-06-09T03:17:15.620Z,926.62
2017-06-09T03:17:29.090Z,926.6
2017-06-09T03:17:41.684Z,926.61
2017-06-09T03:17:55.169Z,926.57
2017-06-09T03:18:08.127Z,926.59
2017-06-09T03:18:21.040Z,926.58
2017-06-09T03:18:34.551Z,926.6
2017-06-09T03:18:47.557Z,926.58
2017-06-09T03:18:59.982Z,926.55
2017-06-09T03:19:13.476Z,926.58
2017-06-09T03:19:27.016Z,926.56
2017-06-09T03:19:40.462Z,926.58
2017-06-09T03:19:53.442Z,926.57
2017-06-09T03:20:06.340Z,926.58
2017-06-09T03:20:18.765Z,926.57
2017-06-09T03:20:32.243Z,926.56
2017-06-09T03:20:44.654Z,926.55
2017-06-09T03:20:58.114Z,926.57
2017-06-09T03:21:11.083Z,926.55
2017-06-09T03:21:24.541Z,926.56
2017-06-09T03:21:38.047Z,926.57
2017-06-09T03:21:51.605Z,926.55
2017-06-09T03:22:04.578Z,926.6
2017-06-09T03:22:17.083Z,926.58
2017-06-09T03:22:30.537Z,926.56
2017-06-09T03:22:43.468Z,926.56
2017-06-09T03:22:56.938Z,926.57
2017-06-09T03:23:09.917Z,926.58
2017-06-09T03:23:22.869Z,926.56
2017-06-09T03:23:36.356Z,926.55
2017-06-09T03:23:49.823Z,926.58
2017-06-09T03:24:03.293Z,926.62
2017-06-09T03:24:16.748Z,926.59
2017-06-09T03:24:29.716Z,926.59
2017-06-09T03:24:43.179Z,926.62
2017-06-09T03:24:56.632Z,926.6
2017-06-09T03:25:10.098Z,926.63
2017-06-09T03:25:23.003Z,926.59
2017-06-09T03:25:36.466Z,926.65
2017-06-09T03:25:49.914Z,926.63
2017-06-09T03:26:03.394Z,926.67
2017-06-09T03:26:16.878Z,926.66
2017-06-09T03:26:30.414Z,926.67
2017-06-09T03:26:43.916Z,926.67
2017-06-09T03:26:57.373Z,926.69
2017-06-09T03:27:10.800Z,926.71
2017-06-09T03:27:24.321Z,926.7
2017-06-09T03:27:37.836Z,926.67
2017-06-09T03:27:51.313Z,926.66
2017-06-09T03:28:04.764Z,926.7
2017-06-09T03:28:16.690Z,926.69
2017-06-09T03:28:30.136Z,926.66
2017-06-09T03:28:43.028Z,926.68
2017-06-09T03:28:56.011Z,926.67
2017-06-09T03:29:09.444Z,926.68
2017-06-09T03:29:22.870Z,926.68
2017-06-09T03:29:36.349Z,926.66
2017-06-09T03:29:49.245Z,926.65
2017-06-09T03:30:02.768Z,926.66
2017-06-09T03:30:15.700Z,926.58
2017-06-09T03:30:28.660Z,926.6
2017-06-09T03:30:41.652Z,926.6
2017-06-09T03:30:55.110Z,926.61
2017-06-09T03:31:08.565Z,926.56
2017-06-09T03:31:22.079Z,926.6
2017-06-09T03:31:35.035Z,926.59
2017-06-09T03:31:47.986Z,926.57
2017-06-09T03:32:00.867Z,926.58
2017-06-09T03:32:14.294Z,926.56
2017-06-09T03:32:27.731Z,926.6
2017-06-09T03:32:41.206Z,926.58
2017-06-09T03:32:54.754Z,926.6
2017-06-09T03:33:08.231Z,926.62
2017-06-09T03:33:21.719Z,926.6
2017-06-09T03:33:35.209Z,926.64
2017-06-09T03:33:48.653Z,926.58
2017-06-09T03:34:02.154Z,926.61
2017-06-09T03:34:15.659Z,926.61
2017-06-09T03:34:28.049Z,926.62
2017-06-09T03:34:40.495Z,926.55
2017-06-09T03:34:53.938Z,926.54
2017-06-09T03:35:06.882Z,926.57
2017-06-09T03:35:20.331Z,926.55
2017-06-09T03:35:33.826Z,926.56
2017-06-09T03:35:47.287Z,926.55
2017-06-09T03:36:00.209Z,926.55
2017-06-09T03:36:13.119Z,926.58
2017-06-09T03:36:26.553Z,926.57
2017-06-09T03:36:39.988Z,926.54
2017-06-09T03:36:53.478Z,926.57
2017-06-09T03:37:06.924Z,926.54
2017-06-09T03:37:19.911Z,926.52
2017-06-09T03:37:34.208Z,926.57
2017-06-09T03:37:47.707Z,926.57
2017-06-09T03:38:01.259Z,926.56
2017-06-09T03:38:14.166Z,926.57
2017-06-09T03:38:27.097Z,926.53
2017-06-09T03:38:40.587Z,926.56
2017-06-09T03:38:54.095Z,926.55
2017-06-09T03:39:07.506Z,926.57
2017-06-09T03:39:20.998Z,926.54
2017-06-09T03:39:33.369Z,926.56
2017-06-09T03:39:46.829Z,926.54
2017-06-09T03:40:00.315Z,926.57
2017-06-09T03:40:13.306Z,926.58
2017-06-09T03:40:26.290Z,926.58
2017-06-09T03:40:39.234Z,926.61
2017-06-09T03:40:52.159Z,926.57
2017-06-09T03:41:05.612Z,926.6
2017-06-09T03:41:18.510Z,926.62
2017-06-09T03:41:31.923Z,926.56
2017-06-09T03:41:44.324Z,926.62
2017-06-09T03:41:57.729Z,926.62
2017-06-09T03:42:11.222Z,926.58
2017-06-09T03:42:24.690Z,926.62
2017-06-09T03:42:38.147Z,926.62
2017-06-09T03:42:51.558Z,926.63
2017-06-09T03:43:05.017Z,926.61
2017-06-09T03:43:18.454Z,926.63
2017-06-09T03:43:31.913Z,926.61
2017-06-09T03:43:45.365Z,926.62
2017-06-09T03:43:58.278Z,926.59
2017-06-09T03:44:11.686Z,926.6
2017-06-09T03:44:25.220Z,926.62
2017-06-09T03:44:38.724Z,926.6
2017-06-09T03:44:52.145Z,926.6
2017-06-09T03:45:05.109Z,926.58
2017-06-09T03:45:18.033Z,926.57
2017-06-09T03:45:31.461Z,926.57
2017-06-09T03:45:44.471Z,926.61
2017-06-09T03:45:57.927Z,926.6
2017-06-09T03:46:11.450Z,926.56
2017-06-09T03:46:24.989Z,926.6
2017-06-09T03:46:38.471Z,926.57
2017-06-09T03:46:51.451Z,926.58
2017-06-09T03:47:04.388Z,926.57
2017-06-09T03:47:17.943Z,926.61
2017-06-09T03:47:31.444Z,926.59
2017-06-09T03:47:44.902Z,926.56
2017-06-09T03:47:58.468Z,926.62
2017-06-09T03:48:11.451Z,926.58
2017-06-09T03:48:24.878Z,926.6
2017-06-09T03:48:38.324Z,926.59
2017-06-09T03:48:51.812Z,926.58
2017-06-09T03:49:05.242Z,926.57
2017-06-09T03:49:18.694Z,926.57
2017-06-09T03:49:32.187Z,926.6
2017-06-09T03:49:45.608Z,926.6
2017-06-09T03:49:58.599Z,926.58
2017-06-09T03:50:11.579Z,926.59
2017-06-09T03:50:24.543Z,926.59
2017-06-09T03:50:37.968Z,926.59
2017-06-09T03:50:51.396Z,926.6
2017-06-09T03:51:04.805Z,926.59
2017-06-09T03:51:18.212Z,926.6
2017-06-09T03:51:31.713Z,926.6
2017-06-09T03:51:45.201Z,926.61
2017-06-09T03:51:58.687Z,926.62
2017-06-09T03:52:12.152Z,926.66
2017-06-09T03:52:25.600Z,926.63
2017-06-09T03:52:38.568Z,926.65
2017-06-09T03:52:52.031Z,926.63
2017-06-09T03:53:05.487Z,926.64
2017-06-09T03:53:18.410Z,926.69
2017-06-09T03:53:31.378Z,926.67
2017-06-09T03:53:44.363Z,926.67
2017-06-09T03:53:57.338Z,926.67
2017-06-09T03:54:10.802Z,926.66
2017-06-09T03:54:24.273Z,926.65
2017-06-09T03:54:37.728Z,926.66
2017-06-09T03:54:51.217Z,926.65
2017-06-09T03:55:04.688Z,926.7
2017-06-09T03:55:17.074Z,926.73
2017-06-09T03:55:30.597Z,926.68
2017-06-09T03:55:44.110Z,926.72
2017-06-09T03:55:57.540Z,926.71
2017-06-09T03:56:11.023Z,926.72
2017-06-09T03:56:24.428Z,926.7
2017-06-09T03:56:37.873Z,926.73
2017-06-09T03:56:51.358Z,926.74
2017-06-09T03:57:04.857Z,926.71
2017-06-09T03:57:17.804Z,926.72
2017-06-09T03:57:30.773Z,926.72
2017-06-09T03:57:44.289Z,926.69
2017-06-09T03:57:57.675Z,926.69
2017-06-09T03:58:10.660Z,926.69
2017-06-09T03:58:23.549Z,926.7
2017-06-09T03:58:37.052Z,926.67
2017-06-09T03:58:50.543Z,926.65
2017-06-09T03:59:04.053Z,926.63
2017-06-09T03:59:16.947Z,926.66
2017-06-09T03:59:30.366Z,926.65
2017-06-09T03:59:43.789Z,926.66
2017-06-09T03:59:57.244Z,926.61
2017-06-09T04:00:10.153Z,926.62
2017-06-09T04:00:23.159Z,926.66
2017-06-09T04:00:36.636Z,926.63
2017-06-09T04:00:48.993Z,926.66
2017-06-09T04:01:02.489Z,926.63
2017-06-09T04:01:15.974Z,926.66
2017-06-09T04:01:29.450Z,926.64
2017-06-09T04:01:42.965Z,926.64
2017-06-09T04:01:56.403Z,926.61
2017-06-09T04:02:09.895Z,926.65
2017-06-09T04:02:22.323Z,926.65
2017-06-09T04:02:35.772Z,926.67
2017-06-09T04:02:49.187Z,926.69
2017-06-09T04:03:01.701Z,926.66
2017-06-09T04:03:15.211Z,926.65
2017-06-09T04:03:28.685Z,926.67
2017-06-09T04:03:42.129Z,926.65
2017-06-09T04:03:55.625Z,926.61
2017-06-09T04:04:09.029Z,926.62
2017-06-09T04:04:22.437Z,926.62
2017-06-09T04:04:35.906Z,926.58
2017-06-09T04:04:49.364Z,926.58
2017-06-09T04:05:02.850Z,926.56
2017-06-09T04:05:15.778Z,926.56
2017-06-09T04:05:28.727Z,926.57
2017-06-09T04:05:42.200Z,926.59
2017-06-09T04:05:55.094Z,926.55
2017-06-09T04:06:08.601Z,926.57
2017-06-09T04:06:21.522Z,926.56
2017-06-09T04:06:34.482Z,926.59
2017-06-09T04:06:47.933Z,926.56
2017-06-09T04:07:01.638Z,926.54
2017-06-09T04:07:14.589Z,926.57
2017-06-09T04:07:27.522Z,926.56
2017-06-09T04:07:40.445Z,926.56
2017-06-09T04:07:53.429Z,926.54
2017-06-09T04:08:06.404Z,926.56
2017-06-09T04:08:19.914Z,926.58
2017-06-09T04:08:33.364Z,926.57
2017-06-09T04:08:46.804Z,926.58
2017-06-09T04:09:00.301Z,926.56
2017-06-09T04:09:13.797Z,926.59
2017-06-09T04:09:27.234Z,926.57
2017-06-09T04:09:40.649Z,926.6
2017-06-09T04:09:54.092Z,926.58
2017-06-09T04:10:07.076Z,926.59
2017-06-09T04:10:19.991Z,926.6
2017-06-09T04:10:33.404Z,926.58
2017-06-09T04:10:46.842Z,926.58
2017-06-09T04:11:00.228Z,926.58
2017-06-09T04:11:13.125Z,926.61
2017-06-09T04:11:26.064Z,926.59
2017-06-09T04:11:39.580Z,926.6
2017-06-09T04:11:53.060Z,926.58
2017-06-09T04:12:05.981Z,926.58
2017-06-09T04:12:18.898Z,926.56
2017-06-09T04:12:32.426Z,926.6
2017-06-09T04:12:45.928Z,926.62
2017-06-09T04:12:58.925Z,926.6
2017-06-09T04:13:12.361Z,926.61
2017-06-09T04:13:25.818Z,926.61
2017-06-09T04:13:38.799Z,926.6
2017-06-09T04:13:52.287Z,926.63
2017-06-09T04:14:04.656Z,926.61
2017-06-09T04:14:17.608Z,926.62
2017-06-09T04:14:31.056Z,926.63
2017-06-09T04:14:44.491Z,926.62
2017-06-09T04:14:57.963Z,926.62
2017-06-09T04:15:11.443Z,926.57
2017-06-09T04:15:24.394Z,926.61
2017-06-09T04:15:37.808Z,926.62
2017-06-09T04:15:51.204Z,926.58
2017-06-09T04:16:04.134Z,926.58